Brownville, New York
Current Conditions -  °F | °C
As of 11:56 AM on Tuesday 21 Oct 2014 (Local Time) from KART Reporting Station
Light Rain Light Rain  
Wind Chill: 52°   Ceiling: 3400
Heat Index: 52°   Visibility: 9mi
Dew Point: 45°   Wind: 9mph
Humidity: 77%   Direction: 40°NE
Pressure: 29.9"   Gusts: NA
Location:  44.01°N, 75.98°W
Report Text: KART 211556Z AUTO 04008KT 9SM -RA BKN034 OVC042 11/07 A2990 RMK AO2 SLP123 P0000 T01110072
Loading
Personal Weather Stations






























Interactive Weather Map
Tropical Storm Tracking
New forecast layout! Learn more

10-Day Weather Forecast

Advertisements
Track Severe Weather on mobile